sensor_id;sensor_type;location;lat;lon;timestamp;P1;durP1;ratioP1;P2;durP2;ratioP2
14611;SDS011;7392;52.078;11.650;2022-12-11T00:02:00;3.17;;;2.70;;
14611;SDS011;7392;52.078;11.650;2022-12-11T00:04:28;2.47;;;2.27;;
14611;SDS011;7392;52.078;11.650;2022-12-11T00:06:56;2.37;;;2.17;;
14611;SDS011;7392;52.078;11.650;2022-12-11T00:09:24;2.57;;;2.33;;
14611;SDS011;7392;52.078;11.650;2022-12-11T00:11:52;2.57;;;2.30;;
14611;SDS011;7392;52.078;11.650;2022-12-11T00:14:20;2.20;;;2.00;;
14611;SDS011;7392;52.078;11.650;2022-12-11T00:16:47;2.60;;;2.40;;
14611;SDS011;7392;52.078;11.650;2022-12-11T00:19:17;2.57;;;2.10;;
14611;SDS011;7392;52.078;11.650;2022-12-11T00:21:44;3.37;;;2.93;;
14611;SDS011;7392;52.078;11.650;2022-12-11T00:24:12;3.00;;;2.70;;
14611;SDS011;7392;52.078;11.650;2022-12-11T00:26:40;2.90;;;2.50;;
14611;SDS011;7392;52.078;11.650;2022-12-11T00:29:08;3.00;;;2.50;;
14611;SDS011;7392;52.078;11.650;2022-12-11T00:31:40;2.27;;;2.07;;
14611;SDS011;7392;52.078;11.650;2022-12-11T00:34:08;3.30;;;2.87;;
14611;SDS011;7392;52.078;11.650;2022-12-11T00:36:38;3.13;;;2.83;;
14611;SDS011;7392;52.078;11.650;2022-12-11T00:39:06;3.77;;;3.03;;
14611;SDS011;7392;52.078;11.650;2022-12-11T00:41:34;3.47;;;2.90;;
14611;SDS011;7392;52.078;11.650;2022-12-11T00:44:02;3.10;;;2.70;;
14611;SDS011;7392;52.078;11.650;2022-12-11T00:46:31;3.10;;;2.80;;
14611;SDS011;7392;52.078;11.650;2022-12-11T00:48:59;2.97;;;2.67;;
14611;SDS011;7392;52.078;11.650;2022-12-11T00:51:26;3.30;;;2.40;;
14611;SDS011;7392;52.078;11.650;2022-12-11T00:53:55;2.60;;;2.30;;
14611;SDS011;7392;52.078;11.650;2022-12-11T00:56:23;2.70;;;2.40;;
14611;SDS011;7392;52.078;11.650;2022-12-11T00:58:51;2.80;;;2.40;;
14611;SDS011;7392;52.078;11.650;2022-12-11T01:01:20;3.17;;;2.20;;
14611;SDS011;7392;52.078;11.650;2022-12-11T01:03:50;2.90;;;2.60;;
14611;SDS011;7392;52.078;11.650;2022-12-11T01:06:19;3.27;;;2.80;;
14611;SDS011;7392;52.078;11.650;2022-12-11T01:08:48;4.23;;;2.40;;
14611;SDS011;7392;52.078;11.650;2022-12-11T01:11:40;2.90;;;2.50;;
14611;SDS011;7392;52.078;11.650;2022-12-11T01:14:08;3.07;;;2.63;;
14611;SDS011;7392;52.078;11.650;2022-12-11T01:16:36;2.67;;;2.47;;
14611;SDS011;7392;52.078;11.650;2022-12-11T01:19:04;3.40;;;2.97;;
14611;SDS011;7392;52.078;11.650;2022-12-11T01:21:32;3.10;;;2.20;;
14611;SDS011;7392;52.078;11.650;2022-12-11T01:24:00;2.63;;;2.30;;
14611;SDS011;7392;52.078;11.650;2022-12-11T01:26:28;2.73;;;2.40;;
14611;SDS011;7392;52.078;11.650;2022-12-11T01:28:57;2.90;;;2.50;;
14611;SDS011;7392;52.078;11.650;2022-12-11T01:31:25;3.03;;;2.63;;
14611;SDS011;7392;52.078;11.650;2022-12-11T01:33:53;2.97;;;2.60;;
14611;SDS011;7392;52.078;11.650;2022-12-11T01:36:21;3.73;;;3.00;;
14611;SDS011;7392;52.078;11.650;2022-12-11T01:38:50;3.17;;;2.70;;
14611;SDS011;7392;52.078;11.650;2022-12-11T01:41:19;3.67;;;3.20;;
14611;SDS011;7392;52.078;11.650;2022-12-11T01:43:59;3.27;;;2.77;;
14611;SDS011;7392;52.078;11.650;2022-12-11T01:46:32;3.27;;;2.97;;
14611;SDS011;7392;52.078;11.650;2022-12-11T01:49:01;2.80;;;2.50;;
14611;SDS011;7392;52.078;11.650;2022-12-11T01:51:31;3.20;;;2.73;;
14611;SDS011;7392;52.078;11.650;2022-12-11T01:54:03;3.10;;;2.60;;
14611;SDS011;7392;52.078;11.650;2022-12-11T01:56:35;3.30;;;2.90;;
14611;SDS011;7392;52.078;11.650;2022-12-11T01:59:08;3.17;;;2.87;;
14611;SDS011;7392;52.078;11.650;2022-12-11T02:01:38;2.93;;;2.60;;
14611;SDS011;7392;52.078;11.650;2022-12-11T02:04:13;2.63;;;2.20;;
14611;SDS011;7392;52.078;11.650;2022-12-11T02:06:42;3.80;;;2.97;;
14611;SDS011;7392;52.078;11.650;2022-12-11T02:09:12;3.27;;;2.83;;
14611;SDS011;7392;52.078;11.650;2022-12-11T02:11:46;3.53;;;2.93;;
14611;SDS011;7392;52.078;11.650;2022-12-11T02:14:24;2.73;;;2.40;;
14611;SDS011;7392;52.078;11.650;2022-12-11T02:16:58;3.00;;;2.50;;
14611;SDS011;7392;52.078;11.650;2022-12-11T02:19:41;3.57;;;2.90;;
14611;SDS011;7392;52.078;11.650;2022-12-11T02:22:15;2.80;;;2.50;;
14611;SDS011;7392;52.078;11.650;2022-12-11T02:24:56;3.03;;;2.50;;
14611;SDS011;7392;52.078;11.650;2022-12-11T02:27:35;2.90;;;2.50;;
14611;SDS011;7392;52.078;11.650;2022-12-11T02:30:09;3.90;;;2.60;;
14611;SDS011;7392;52.078;11.650;2022-12-11T02:32:41;2.80;;;2.47;;
14611;SDS011;7392;52.078;11.650;2022-12-11T02:35:14;3.23;;;2.87;;
14611;SDS011;7392;52.078;11.650;2022-12-11T02:37:47;3.03;;;2.60;;
14611;SDS011;7392;52.078;11.650;2022-12-11T02:40:18;2.83;;;2.23;;
14611;SDS011;7392;52.078;11.650;2022-12-11T02:42:51;3.87;;;2.97;;
14611;SDS011;7392;52.078;11.650;2022-12-11T02:45:22;3.00;;;2.60;;
14611;SDS011;7392;52.078;11.650;2022-12-11T02:47:52;3.30;;;2.97;;
14611;SDS011;7392;52.078;11.650;2022-12-11T02:50:23;2.70;;;2.50;;
14611;SDS011;7392;52.078;11.650;2022-12-11T02:52:53;2.63;;;2.33;;
14611;SDS011;7392;52.078;11.650;2022-12-11T02:55:23;2.67;;;2.30;;
14611;SDS011;7392;52.078;11.650;2022-12-11T02:57:55;2.50;;;2.27;;
14611;SDS011;7392;52.078;11.650;2022-12-11T03:00:31;2.53;;;2.10;;
14611;SDS011;7392;52.078;11.650;2022-12-11T03:02:58;2.47;;;2.10;;
14611;SDS011;7392;52.078;11.650;2022-12-11T03:05:26;2.87;;;2.43;;
14611;SDS011;7392;52.078;11.650;2022-12-11T03:07:55;2.90;;;2.40;;
14611;SDS011;7392;52.078;11.650;2022-12-11T03:10:23;2.63;;;2.43;;
14611;SDS011;7392;52.078;11.650;2022-12-11T03:12:51;2.47;;;2.03;;
14611;SDS011;7392;52.078;11.650;2022-12-11T03:15:22;2.80;;;2.37;;
14611;SDS011;7392;52.078;11.650;2022-12-11T03:17:58;2.57;;;2.13;;
14611;SDS011;7392;52.078;11.650;2022-12-11T03:20:33;2.93;;;2.50;;
14611;SDS011;7392;52.078;11.650;2022-12-11T03:23:08;2.30;;;1.97;;
14611;SDS011;7392;52.078;11.650;2022-12-11T03:25:46;2.27;;;1.93;;
14611;SDS011;7392;52.078;11.650;2022-12-11T03:28:20;2.50;;;1.90;;
14611;SDS011;7392;52.078;11.650;2022-12-11T03:30:52;2.37;;;2.03;;
14611;SDS011;7392;52.078;11.650;2022-12-11T03:33:22;2.93;;;2.40;;
14611;SDS011;7392;52.078;11.650;2022-12-11T03:35:58;2.70;;;2.20;;
14611;SDS011;7392;52.078;11.650;2022-12-11T03:38:30;3.00;;;2.27;;
14611;SDS011;7392;52.078;11.650;2022-12-11T03:41:00;3.20;;;2.70;;
14611;SDS011;7392;52.078;11.650;2022-12-11T03:43:31;3.57;;;3.07;;
14611;SDS011;7392;52.078;11.650;2022-12-11T03:46:00;3.53;;;3.13;;
14611;SDS011;7392;52.078;11.650;2022-12-11T03:48:31;3.87;;;3.13;;
14611;SDS011;7392;52.078;11.650;2022-12-11T03:51:03;3.57;;;2.83;;
14611;SDS011;7392;52.078;11.650;2022-12-11T03:53:32;3.70;;;3.00;;
14611;SDS011;7392;52.078;11.650;2022-12-11T03:56:01;4.20;;;3.00;;
14611;SDS011;7392;52.078;11.650;2022-12-11T03:58:32;3.97;;;3.00;;
14611;SDS011;7392;52.078;11.650;2022-12-11T04:01:00;3.60;;;3.17;;
14611;SDS011;7392;52.078;11.650;2022-12-11T04:03:29;3.83;;;3.03;;
14611;SDS011;7392;52.078;11.650;2022-12-11T04:05:57;4.23;;;3.67;;
14611;SDS011;7392;52.078;11.650;2022-12-11T04:08:25;4.03;;;3.20;;
14611;SDS011;7392;52.078;11.650;2022-12-11T04:10:53;4.37;;;3.50;;
14611;SDS011;7392;52.078;11.650;2022-12-11T04:13:35;5.87;;;4.17;;
14611;SDS011;7392;52.078;11.650;2022-12-11T04:16:03;6.23;;;4.47;;
14611;SDS011;7392;52.078;11.650;2022-12-11T04:18:32;5.10;;;3.90;;
14611;SDS011;7392;52.078;11.650;2022-12-11T04:21:17;7.07;;;4.90;;
14611;SDS011;7392;52.078;11.650;2022-12-11T04:24:05;5.20;;;4.30;;
14611;SDS011;7392;52.078;11.650;2022-12-11T04:26:42;5.77;;;4.57;;
14611;SDS011;7392;52.078;11.650;2022-12-11T04:29:11;6.87;;;5.00;;
14611;SDS011;7392;52.078;11.650;2022-12-11T04:31:39;4.67;;;3.93;;
14611;SDS011;7392;52.078;11.650;2022-12-11T04:34:08;5.97;;;4.10;;
14611;SDS011;7392;52.078;11.650;2022-12-11T04:36:36;6.20;;;4.33;;
14611;SDS011;7392;52.078;11.650;2022-12-11T04:39:04;5.70;;;4.40;;
14611;SDS011;7392;52.078;11.650;2022-12-11T04:41:32;5.03;;;3.90;;
14611;SDS011;7392;52.078;11.650;2022-12-11T04:44:00;7.20;;;4.93;;
14611;SDS011;7392;52.078;11.650;2022-12-11T04:46:28;4.97;;;4.07;;
14611;SDS011;7392;52.078;11.650;2022-12-11T04:48:56;6.07;;;4.50;;
14611;SDS011;7392;52.078;11.650;2022-12-11T04:51:26;5.80;;;4.20;;
14611;SDS011;7392;52.078;11.650;2022-12-11T04:53:55;5.93;;;4.37;;
14611;SDS011;7392;52.078;11.650;2022-12-11T04:56:24;6.50;;;4.60;;
14611;SDS011;7392;52.078;11.650;2022-12-11T04:58:52;5.40;;;4.20;;
14611;SDS011;7392;52.078;11.650;2022-12-11T05:01:20;6.70;;;5.20;;
14611;SDS011;7392;52.078;11.650;2022-12-11T05:03:49;7.00;;;5.27;;
14611;SDS011;7392;52.078;11.650;2022-12-11T05:06:17;6.43;;;5.13;;
14611;SDS011;7392;52.078;11.650;2022-12-11T05:08:46;7.13;;;5.20;;
14611;SDS011;7392;52.078;11.650;2022-12-11T05:11:15;6.63;;;5.13;;
14611;SDS011;7392;52.078;11.650;2022-12-11T05:13:44;6.57;;;5.43;;
14611;SDS011;7392;52.078;11.650;2022-12-11T05:16:12;6.83;;;5.47;;
14611;SDS011;7392;52.078;11.650;2022-12-11T05:18:41;7.60;;;5.30;;
14611;SDS011;7392;52.078;11.650;2022-12-11T05:21:11;7.50;;;5.40;;
14611;SDS011;7392;52.078;11.650;2022-12-11T05:23:40;6.67;;;5.03;;
14611;SDS011;7392;52.078;11.650;2022-12-11T05:26:11;5.13;;;3.97;;
14611;SDS011;7392;52.078;11.650;2022-12-11T05:28:41;5.87;;;4.53;;
14611;SDS011;7392;52.078;11.650;2022-12-11T05:31:11;6.73;;;5.23;;
14611;SDS011;7392;52.078;11.650;2022-12-11T05:33:40;6.43;;;4.87;;
14611;SDS011;7392;52.078;11.650;2022-12-11T05:36:08;6.57;;;5.10;;
14611;SDS011;7392;52.078;11.650;2022-12-11T05:38:42;6.70;;;5.03;;
14611;SDS011;7392;52.078;11.650;2022-12-11T05:41:11;6.47;;;4.77;;
14611;SDS011;7392;52.078;11.650;2022-12-11T05:43:40;5.60;;;4.73;;
14611;SDS011;7392;52.078;11.650;2022-12-11T05:46:08;4.90;;;4.00;;
14611;SDS011;7392;52.078;11.650;2022-12-11T05:48:38;6.03;;;4.57;;
14611;SDS011;7392;52.078;11.650;2022-12-11T05:51:06;6.10;;;4.67;;
14611;SDS011;7392;52.078;11.650;2022-12-11T05:53:35;5.27;;;4.70;;
14611;SDS011;7392;52.078;11.650;2022-12-11T05:56:04;6.10;;;4.47;;
14611;SDS011;7392;52.078;11.650;2022-12-11T05:58:35;6.00;;;4.60;;
14611;SDS011;7392;52.078;11.650;2022-12-11T06:01:05;5.73;;;4.70;;
14611;SDS011;7392;52.078;11.650;2022-12-11T06:03:34;7.50;;;5.10;;
14611;SDS011;7392;52.078;11.650;2022-12-11T06:06:02;7.57;;;5.57;;
14611;SDS011;7392;52.078;11.650;2022-12-11T06:08:30;7.23;;;5.30;;
14611;SDS011;7392;52.078;11.650;2022-12-11T06:10:59;8.27;;;5.73;;
14611;SDS011;7392;52.078;11.650;2022-12-11T06:13:27;8.23;;;6.10;;
14611;SDS011;7392;52.078;11.650;2022-12-11T06:15:59;10.83;;;6.80;;
14611;SDS011;7392;52.078;11.650;2022-12-11T06:18:28;7.87;;;6.03;;
14611;SDS011;7392;52.078;11.650;2022-12-11T06:20:56;7.90;;;5.73;;
14611;SDS011;7392;52.078;11.650;2022-12-11T06:23:24;8.07;;;5.93;;
14611;SDS011;7392;52.078;11.650;2022-12-11T06:25:52;7.53;;;5.70;;
14611;SDS011;7392;52.078;11.650;2022-12-11T06:28:20;7.53;;;5.33;;
14611;SDS011;7392;52.078;11.650;2022-12-11T06:30:48;6.63;;;5.07;;
14611;SDS011;7392;52.078;11.650;2022-12-11T06:33:17;6.80;;;4.83;;
14611;SDS011;7392;52.078;11.650;2022-12-11T06:35:44;7.37;;;5.70;;
14611;SDS011;7392;52.078;11.650;2022-12-11T06:38:12;5.87;;;4.57;;
14611;SDS011;7392;52.078;11.650;2022-12-11T06:40:40;5.20;;;4.30;;
14611;SDS011;7392;52.078;11.650;2022-12-11T06:43:08;5.03;;;4.30;;
14611;SDS011;7392;52.078;11.650;2022-12-11T06:45:36;5.27;;;4.07;;
14611;SDS011;7392;52.078;11.650;2022-12-11T06:48:04;6.37;;;4.40;;
14611;SDS011;7392;52.078;11.650;2022-12-11T06:50:34;6.23;;;4.63;;
14611;SDS011;7392;52.078;11.650;2022-12-11T06:53:04;6.00;;;4.23;;
14611;SDS011;7392;52.078;11.650;2022-12-11T06:55:33;7.70;;;5.13;;
14611;SDS011;7392;52.078;11.650;2022-12-11T06:58:01;6.50;;;5.03;;
14611;SDS011;7392;52.078;11.650;2022-12-11T07:00:30;7.20;;;5.13;;
14611;SDS011;7392;52.078;11.650;2022-12-11T07:02:57;5.57;;;4.13;;
14611;SDS011;7392;52.078;11.650;2022-12-11T07:05:25;6.37;;;4.77;;
14611;SDS011;7392;52.078;11.650;2022-12-11T07:07:55;5.60;;;3.87;;
14611;SDS011;7392;52.078;11.650;2022-12-11T07:10:23;6.23;;;4.23;;
14611;SDS011;7392;52.078;11.650;2022-12-11T07:12:51;5.57;;;3.80;;
14611;SDS011;7392;52.078;11.650;2022-12-11T07:15:18;5.50;;;4.13;;
14611;SDS011;7392;52.078;11.650;2022-12-11T07:17:46;5.20;;;3.80;;
14611;SDS011;7392;52.078;11.650;2022-12-11T07:20:14;4.47;;;3.23;;
14611;SDS011;7392;52.078;11.650;2022-12-11T07:22:42;4.13;;;2.97;;
14611;SDS011;7392;52.078;11.650;2022-12-11T07:25:13;4.33;;;3.03;;
14611;SDS011;7392;52.078;11.650;2022-12-11T07:27:41;3.90;;;2.87;;
14611;SDS011;7392;52.078;11.650;2022-12-11T07:30:09;4.37;;;3.10;;
14611;SDS011;7392;52.078;11.650;2022-12-11T07:32:38;4.03;;;3.00;;
14611;SDS011;7392;52.078;11.650;2022-12-11T07:35:06;4.07;;;2.63;;
14611;SDS011;7392;52.078;11.650;2022-12-11T07:37:35;3.67;;;2.30;;
14611;SDS011;7392;52.078;11.650;2022-12-11T07:40:03;3.30;;;2.63;;
14611;SDS011;7392;52.078;11.650;2022-12-11T07:42:34;3.07;;;2.10;;
14611;SDS011;7392;52.078;11.650;2022-12-11T07:45:08;2.53;;;2.03;;
14611;SDS011;7392;52.078;11.650;2022-12-11T07:47:37;3.30;;;2.40;;
14611;SDS011;7392;52.078;11.650;2022-12-11T07:50:05;2.57;;;2.10;;
14611;SDS011;7392;52.078;11.650;2022-12-11T07:52:33;2.63;;;2.20;;
14611;SDS011;7392;52.078;11.650;2022-12-11T07:55:01;3.50;;;2.67;;
14611;SDS011;7392;52.078;11.650;2022-12-11T07:57:29;2.37;;;2.00;;
14611;SDS011;7392;52.078;11.650;2022-12-11T07:59:58;3.37;;;2.23;;
14611;SDS011;7392;52.078;11.650;2022-12-11T08:02:26;2.90;;;2.23;;
14611;SDS011;7392;52.078;11.650;2022-12-11T08:05:02;2.63;;;2.10;;
14611;SDS011;7392;52.078;11.650;2022-12-11T08:07:30;2.67;;;2.03;;
14611;SDS011;7392;52.078;11.650;2022-12-11T08:10:00;3.30;;;2.40;;
14611;SDS011;7392;52.078;11.650;2022-12-11T08:12:28;2.70;;;2.13;;
14611;SDS011;7392;52.078;11.650;2022-12-11T08:14:55;3.10;;;2.37;;
14611;SDS011;7392;52.078;11.650;2022-12-11T08:17:25;2.53;;;2.03;;
14611;SDS011;7392;52.078;11.650;2022-12-11T08:19:59;2.70;;;2.37;;
14611;SDS011;7392;52.078;11.650;2022-12-11T08:22:27;2.90;;;2.20;;
14611;SDS011;7392;52.078;11.650;2022-12-11T08:24:54;3.57;;;2.87;;
14611;SDS011;7392;52.078;11.650;2022-12-11T08:27:22;3.07;;;2.57;;
14611;SDS011;7392;52.078;11.650;2022-12-11T08:29:51;4.33;;;2.97;;
14611;SDS011;7392;52.078;11.650;2022-12-11T08:32:19;4.70;;;2.93;;
14611;SDS011;7392;52.078;11.650;2022-12-11T08:34:50;3.23;;;2.70;;
14611;SDS011;7392;52.078;11.650;2022-12-11T08:37:18;3.33;;;2.30;;
14611;SDS011;7392;52.078;11.650;2022-12-11T08:39:46;4.10;;;2.80;;
14611;SDS011;7392;52.078;11.650;2022-12-11T08:42:14;3.20;;;2.33;;
14611;SDS011;7392;52.078;11.650;2022-12-11T08:44:41;4.03;;;2.80;;
14611;SDS011;7392;52.078;11.650;2022-12-11T08:47:09;4.67;;;3.10;;
14611;SDS011;7392;52.078;11.650;2022-12-11T08:49:37;3.80;;;2.77;;
14611;SDS011;7392;52.078;11.650;2022-12-11T08:52:06;4.20;;;2.90;;
14611;SDS011;7392;52.078;11.650;2022-12-11T08:54:35;4.50;;;3.13;;
14611;SDS011;7392;52.078;11.650;2022-12-11T08:57:03;3.67;;;2.90;;
14611;SDS011;7392;52.078;11.650;2022-12-11T08:59:31;4.30;;;3.13;;
14611;SDS011;7392;52.078;11.650;2022-12-11T09:01:59;3.53;;;2.83;;
14611;SDS011;7392;52.078;11.650;2022-12-11T09:04:27;3.93;;;3.03;;
14611;SDS011;7392;52.078;11.650;2022-12-11T09:06:55;3.67;;;3.13;;
14611;SDS011;7392;52.078;11.650;2022-12-11T09:09:24;5.40;;;3.83;;
14611;SDS011;7392;52.078;11.650;2022-12-11T09:11:52;3.90;;;3.37;;
14611;SDS011;7392;52.078;11.650;2022-12-11T09:14:20;5.87;;;3.87;;
14611;SDS011;7392;52.078;11.650;2022-12-11T09:16:47;4.27;;;3.57;;
14611;SDS011;7392;52.078;11.650;2022-12-11T09:19:15;5.93;;;4.10;;
14611;SDS011;7392;52.078;11.650;2022-12-11T09:21:43;6.00;;;4.23;;
14611;SDS011;7392;52.078;11.650;2022-12-11T09:24:11;7.13;;;5.47;;
14611;SDS011;7392;52.078;11.650;2022-12-11T09:26:41;7.17;;;4.77;;
14611;SDS011;7392;52.078;11.650;2022-12-11T09:29:09;6.73;;;4.80;;
14611;SDS011;7392;52.078;11.650;2022-12-11T09:31:38;8.00;;;5.17;;
14611;SDS011;7392;52.078;11.650;2022-12-11T09:34:07;7.37;;;5.43;;
14611;SDS011;7392;52.078;11.650;2022-12-11T09:36:37;6.43;;;5.03;;
14611;SDS011;7392;52.078;11.650;2022-12-11T09:39:06;6.93;;;5.20;;
14611;SDS011;7392;52.078;11.650;2022-12-11T09:41:36;7.07;;;4.50;;
14611;SDS011;7392;52.078;11.650;2022-12-11T09:44:12;5.83;;;4.50;;
14611;SDS011;7392;52.078;11.650;2022-12-11T09:46:44;5.90;;;4.40;;
14611;SDS011;7392;52.078;11.650;2022-12-11T09:49:17;6.00;;;4.70;;
14611;SDS011;7392;52.078;11.650;2022-12-11T09:51:57;7.10;;;4.83;;
14611;SDS011;7392;52.078;11.650;2022-12-11T09:54:32;5.93;;;4.20;;
14611;SDS011;7392;52.078;11.650;2022-12-11T09:57:02;6.30;;;4.53;;
14611;SDS011;7392;52.078;11.650;2022-12-11T09:59:43;7.53;;;5.17;;
14611;SDS011;7392;52.078;11.650;2022-12-11T10:02:22;6.20;;;4.77;;
14611;SDS011;7392;52.078;11.650;2022-12-11T10:04:59;6.70;;;4.83;;
14611;SDS011;7392;52.078;11.650;2022-12-11T10:07:40;7.27;;;5.13;;
14611;SDS011;7392;52.078;11.650;2022-12-11T10:10:16;5.53;;;4.33;;
14611;SDS011;7392;52.078;11.650;2022-12-11T10:12:54;5.17;;;4.20;;
14611;SDS011;7392;52.078;11.650;2022-12-11T10:15:36;7.37;;;5.00;;
14611;SDS011;7392;52.078;11.650;2022-12-11T10:18:08;6.77;;;5.10;;
14611;SDS011;7392;52.078;11.650;2022-12-11T10:20:42;8.07;;;5.53;;
14611;SDS011;7392;52.078;11.650;2022-12-11T10:23:14;6.80;;;5.00;;
14611;SDS011;7392;52.078;11.650;2022-12-11T10:25:45;6.17;;;4.73;;
14611;SDS011;7392;52.078;11.650;2022-12-11T10:28:18;5.97;;;4.27;;
14611;SDS011;7392;52.078;11.650;2022-12-11T10:30:50;5.97;;;4.27;;
14611;SDS011;7392;52.078;11.650;2022-12-11T10:33:28;6.10;;;4.50;;
14611;SDS011;7392;52.078;11.650;2022-12-11T10:36:02;7.33;;;5.20;;
14611;SDS011;7392;52.078;11.650;2022-12-11T10:38:33;5.50;;;4.33;;
14611;SDS011;7392;52.078;11.650;2022-12-11T10:41:09;6.33;;;4.43;;
14611;SDS011;7392;52.078;11.650;2022-12-11T10:43:41;5.70;;;4.67;;
14611;SDS011;7392;52.078;11.650;2022-12-11T10:46:15;4.83;;;3.97;;
14611;SDS011;7392;52.078;11.650;2022-12-11T10:48:44;5.23;;;4.10;;
14611;SDS011;7392;52.078;11.650;2022-12-11T10:51:13;5.93;;;4.30;;
14611;SDS011;7392;52.078;11.650;2022-12-11T10:53:41;6.07;;;4.67;;
14611;SDS011;7392;52.078;11.650;2022-12-11T10:56:10;5.63;;;4.17;;
14611;SDS011;7392;52.078;11.650;2022-12-11T10:58:39;5.50;;;4.47;;
14611;SDS011;7392;52.078;11.650;2022-12-11T11:01:18;5.33;;;4.10;;
14611;SDS011;7392;52.078;11.650;2022-12-11T11:03:54;6.83;;;4.70;;
14611;SDS011;7392;52.078;11.650;2022-12-11T11:06:25;6.07;;;4.30;;
14611;SDS011;7392;52.078;11.650;2022-12-11T11:08:53;6.37;;;4.67;;
14611;SDS011;7392;52.078;11.650;2022-12-11T11:11:25;5.37;;;4.00;;
14611;SDS011;7392;52.078;11.650;2022-12-11T11:14:04;6.20;;;4.63;;
14611;SDS011;7392;52.078;11.650;2022-12-11T11:16:36;5.00;;;4.00;;
14611;SDS011;7392;52.078;11.650;2022-12-11T11:19:05;4.63;;;3.97;;
14611;SDS011;7392;52.078;11.650;2022-12-11T11:21:34;4.37;;;3.47;;
14611;SDS011;7392;52.078;11.650;2022-12-11T11:24:02;4.77;;;3.83;;
14611;SDS011;7392;52.078;11.650;2022-12-11T11:26:30;5.10;;;3.73;;
14611;SDS011;7392;52.078;11.650;2022-12-11T11:29:22;4.70;;;3.50;;
14611;SDS011;7392;52.078;11.650;2022-12-11T11:31:56;5.20;;;3.77;;
14611;SDS011;7392;52.078;11.650;2022-12-11T11:34:25;5.13;;;3.90;;
14611;SDS011;7392;52.078;11.650;2022-12-11T11:36:57;4.93;;;3.80;;
14611;SDS011;7392;52.078;11.650;2022-12-11T11:39:31;5.17;;;3.73;;
14611;SDS011;7392;52.078;11.650;2022-12-11T11:42:02;3.87;;;3.10;;
14611;SDS011;7392;52.078;11.650;2022-12-11T11:44:38;5.43;;;4.00;;
14611;SDS011;7392;52.078;11.650;2022-12-11T11:47:11;5.60;;;3.93;;
14611;SDS011;7392;52.078;11.650;2022-12-11T11:49:45;5.97;;;4.23;;
14611;SDS011;7392;52.078;11.650;2022-12-11T11:52:20;5.23;;;3.70;;
14611;SDS011;7392;52.078;11.650;2022-12-11T11:54:55;4.53;;;3.73;;
14611;SDS011;7392;52.078;11.650;2022-12-11T11:57:33;4.80;;;3.53;;
14611;SDS011;7392;52.078;11.650;2022-12-11T12:00:04;5.07;;;4.00;;
14611;SDS011;7392;52.078;11.650;2022-12-11T12:02:48;5.23;;;4.13;;
14611;SDS011;7392;52.078;11.650;2022-12-11T12:05:21;4.33;;;3.60;;
14611;SDS011;7392;52.078;11.650;2022-12-11T12:07:55;5.20;;;4.00;;
14611;SDS011;7392;52.078;11.650;2022-12-11T12:10:36;5.60;;;3.67;;
14611;SDS011;7392;52.078;11.650;2022-12-11T12:13:15;5.77;;;3.80;;
14611;SDS011;7392;52.078;11.650;2022-12-11T12:16:13;5.07;;;3.93;;
14611;SDS011;7392;52.078;11.650;2022-12-11T12:19:11;4.93;;;3.83;;
14611;SDS011;7392;52.078;11.650;2022-12-11T12:21:48;4.67;;;3.50;;
14611;SDS011;7392;52.078;11.650;2022-12-11T12:24:21;5.27;;;3.70;;
14611;SDS011;7392;52.078;11.650;2022-12-11T12:26:56;5.83;;;4.10;;
14611;SDS011;7392;52.078;11.650;2022-12-11T12:29:32;5.53;;;4.03;;
14611;SDS011;7392;52.078;11.650;2022-12-11T12:32:12;4.53;;;4.00;;
14611;SDS011;7392;52.078;11.650;2022-12-11T12:34:52;6.23;;;4.47;;
14611;SDS011;7392;52.078;11.650;2022-12-11T12:37:35;6.93;;;4.53;;
14611;SDS011;7392;52.078;11.650;2022-12-11T12:40:16;5.70;;;4.57;;
14611;SDS011;7392;52.078;11.650;2022-12-11T12:42:51;7.13;;;4.40;;
14611;SDS011;7392;52.078;11.650;2022-12-11T12:45:27;4.93;;;4.10;;
14611;SDS011;7392;52.078;11.650;2022-12-11T12:48:00;5.23;;;3.97;;
14611;SDS011;7392;52.078;11.650;2022-12-11T12:50:31;5.07;;;4.10;;
14611;SDS011;7392;52.078;11.650;2022-12-11T12:53:04;4.70;;;4.00;;
14611;SDS011;7392;52.078;11.650;2022-12-11T12:55:33;5.47;;;3.93;;
14611;SDS011;7392;52.078;11.650;2022-12-11T12:58:03;7.50;;;5.57;;
14611;SDS011;7392;52.078;11.650;2022-12-11T13:00:33;6.53;;;5.20;;
14611;SDS011;7392;52.078;11.650;2022-12-11T13:03:10;8.20;;;5.97;;
14611;SDS011;7392;52.078;11.650;2022-12-11T13:05:42;7.07;;;5.30;;
14611;SDS011;7392;52.078;11.650;2022-12-11T13:08:12;7.30;;;4.70;;
14611;SDS011;7392;52.078;11.650;2022-12-11T13:10:57;7.50;;;5.37;;
14611;SDS011;7392;52.078;11.650;2022-12-11T13:13:32;5.83;;;4.60;;
14611;SDS011;7392;52.078;11.650;2022-12-11T13:16:20;7.63;;;4.87;;
14611;SDS011;7392;52.078;11.650;2022-12-11T13:18:51;6.57;;;4.63;;
14611;SDS011;7392;52.078;11.650;2022-12-11T13:21:26;8.93;;;6.27;;
14611;SDS011;7392;52.078;11.650;2022-12-11T13:24:15;7.13;;;5.20;;
14611;SDS011;7392;52.078;11.650;2022-12-11T13:26:50;6.93;;;5.43;;
14611;SDS011;7392;52.078;11.650;2022-12-11T13:29:28;6.60;;;5.30;;
14611;SDS011;7392;52.078;11.650;2022-12-11T13:32:03;7.07;;;5.40;;
14611;SDS011;7392;52.078;11.650;2022-12-11T13:34:49;8.57;;;5.90;;
14611;SDS011;7392;52.078;11.650;2022-12-11T13:37:22;5.97;;;4.53;;
14611;SDS011;7392;52.078;11.650;2022-12-11T13:39:53;6.57;;;4.87;;
14611;SDS011;7392;52.078;11.650;2022-12-11T13:42:22;6.53;;;4.80;;
14611;SDS011;7392;52.078;11.650;2022-12-11T13:44:56;6.87;;;5.00;;
14611;SDS011;7392;52.078;11.650;2022-12-11T13:47:24;6.90;;;5.40;;
14611;SDS011;7392;52.078;11.650;2022-12-11T13:49:54;6.07;;;4.73;;
14611;SDS011;7392;52.078;11.650;2022-12-11T13:52:29;6.23;;;4.83;;
14611;SDS011;7392;52.078;11.650;2022-12-11T13:54:57;5.97;;;4.57;;
14611;SDS011;7392;52.078;11.650;2022-12-11T13:57:26;5.60;;;4.40;;
14611;SDS011;7392;52.078;11.650;2022-12-11T13:59:55;6.63;;;4.50;;
14611;SDS011;7392;52.078;11.650;2022-12-11T14:02:25;6.20;;;4.80;;
14611;SDS011;7392;52.078;11.650;2022-12-11T14:04:57;6.37;;;4.67;;
14611;SDS011;7392;52.078;11.650;2022-12-11T14:07:29;5.80;;;4.40;;
14611;SDS011;7392;52.078;11.650;2022-12-11T14:10:00;5.70;;;4.30;;
14611;SDS011;7392;52.078;11.650;2022-12-11T14:12:31;6.27;;;4.43;;
14611;SDS011;7392;52.078;11.650;2022-12-11T14:15:00;5.07;;;4.10;;
14611;SDS011;7392;52.078;11.650;2022-12-11T14:17:31;5.87;;;4.57;;
14611;SDS011;7392;52.078;11.650;2022-12-11T14:20:02;5.43;;;4.00;;
14611;SDS011;7392;52.078;11.650;2022-12-11T14:22:34;4.30;;;3.40;;
14611;SDS011;7392;52.078;11.650;2022-12-11T14:25:15;4.87;;;3.73;;
14611;SDS011;7392;52.078;11.650;2022-12-11T14:27:47;5.07;;;3.63;;
14611;SDS011;7392;52.078;11.650;2022-12-11T14:30:21;5.70;;;3.47;;
14611;SDS011;7392;52.078;11.650;2022-12-11T14:32:50;4.70;;;3.40;;
14611;SDS011;7392;52.078;11.650;2022-12-11T14:35:23;4.70;;;3.57;;
14611;SDS011;7392;52.078;11.650;2022-12-11T14:37:55;4.30;;;3.13;;
14611;SDS011;7392;52.078;11.650;2022-12-11T14:40:28;3.67;;;2.90;;
14611;SDS011;7392;52.078;11.650;2022-12-11T14:43:02;4.50;;;3.40;;
14611;SDS011;7392;52.078;11.650;2022-12-11T14:45:34;4.43;;;3.57;;
14611;SDS011;7392;52.078;11.650;2022-12-11T14:48:06;4.07;;;2.97;;
14611;SDS011;7392;52.078;11.650;2022-12-11T14:50:37;3.63;;;3.30;;
14611;SDS011;7392;52.078;11.650;2022-12-11T14:53:12;4.20;;;3.00;;
14611;SDS011;7392;52.078;11.650;2022-12-11T14:55:43;6.47;;;4.30;;
14611;SDS011;7392;52.078;11.650;2022-12-11T14:58:14;6.70;;;5.13;;
14611;SDS011;7392;52.078;11.650;2022-12-11T15:00:54;7.00;;;5.00;;
14611;SDS011;7392;52.078;11.650;2022-12-11T15:03:24;7.10;;;5.00;;
14611;SDS011;7392;52.078;11.650;2022-12-11T15:05:58;6.60;;;4.80;;
14611;SDS011;7392;52.078;11.650;2022-12-11T15:08:29;8.07;;;5.67;;
14611;SDS011;7392;52.078;11.650;2022-12-11T15:11:00;5.83;;;4.60;;
14611;SDS011;7392;52.078;11.650;2022-12-11T15:13:31;6.60;;;4.93;;